createdAt,value
2023-03-07T00:00:20.568Z,31.90
2023-03-07T00:02:52.213Z,33.50
2023-03-07T00:05:20.183Z,38.57
2023-03-07T00:07:47.910Z,36.47
2023-03-07T00:10:15.821Z,30.93
2023-03-07T00:12:43.777Z,31.13
2023-03-07T00:15:12.286Z,32.67
2023-03-07T00:17:40.759Z,31.90
2023-03-07T00:20:14.785Z,31.87
2023-03-07T00:22:46.896Z,32.07
2023-03-07T00:25:16.140Z,34.57
2023-03-07T00:27:43.891Z,31.73
2023-03-07T00:30:13.787Z,26.33
2023-03-07T00:32:41.595Z,26.30
2023-03-07T00:35:09.913Z,33.17
2023-03-07T00:37:37.769Z,26.03
2023-03-07T00:40:08.152Z,34.60
2023-03-07T00:42:36.075Z,25.40
2023-03-07T00:45:04.307Z,21.17
2023-03-07T00:47:32.014Z,20.70
2023-03-07T00:49:59.803Z,21.93
2023-03-07T00:52:27.473Z,21.70
2023-03-07T00:54:55.214Z,19.27
2023-03-07T00:57:23.367Z,17.77
2023-03-07T00:59:51.161Z,20.80
2023-03-07T01:02:19.026Z,22.90
2023-03-07T01:04:46.789Z,25.83
2023-03-07T01:07:15.693Z,20.40
2023-03-07T01:09:43.801Z,23.93
2023-03-07T01:12:11.622Z,29.30
2023-03-07T01:14:39.586Z,26.93
2023-03-07T01:17:07.409Z,31.10
2023-03-07T01:19:35.180Z,26.47
2023-03-07T01:22:03.209Z,29.10
2023-03-07T01:24:31.151Z,27.47
2023-03-07T01:26:59.595Z,32.40
2023-03-07T01:29:27.392Z,29.77
2023-03-07T01:31:55.627Z,28.43
2023-03-07T01:34:23.962Z,32.50
2023-03-07T01:36:53.049Z,34.63
2023-03-07T01:39:21.137Z,27.37
2023-03-07T01:41:53.813Z,33.47
2023-03-07T01:44:26.793Z,29.60
2023-03-07T01:47:00.839Z,30.77
2023-03-07T01:50:09.446Z,28.30
2023-03-07T01:52:52.175Z,25.90
2023-03-07T01:55:35.764Z,28.63
2023-03-07T01:58:16.276Z,27.10
2023-03-07T02:00:45.766Z,28.37
2023-03-07T02:03:52.564Z,29.10
2023-03-07T02:06:21.777Z,25.57
2023-03-07T02:08:53.953Z,20.33
2023-03-07T02:11:22.685Z,19.80
2023-03-07T02:13:50.319Z,15.80
2023-03-07T02:16:18.816Z,19.13
2023-03-07T02:18:50.452Z,14.80
2023-03-07T02:22:13.542Z,16.40
2023-03-07T02:25:40.426Z,10.43
2023-03-07T02:28:16.298Z,11.70
2023-03-07T02:31:06.261Z,11.13
2023-03-07T02:33:36.604Z,7.93
2023-03-07T02:36:28.262Z,10.33
2023-03-07T02:39:07.061Z,7.30
2023-03-07T02:41:39.306Z,9.43
2023-03-07T02:44:15.182Z,8.70
2023-03-07T02:46:43.350Z,9.90
2023-03-07T02:49:11.240Z,11.63
2023-03-07T02:51:39.101Z,9.87
2023-03-07T02:54:08.460Z,14.00
2023-03-07T02:56:37.117Z,14.20
2023-03-07T02:59:05.009Z,14.67
2023-03-07T03:01:33.341Z,12.13
2023-03-07T03:04:01.132Z,12.73
2023-03-07T03:06:28.887Z,10.07
2023-03-07T03:08:58.106Z,11.10
2023-03-07T03:11:27.919Z,9.40
2023-03-07T03:13:56.204Z,9.50
2023-03-07T03:16:24.009Z,9.90
2023-03-07T03:18:51.878Z,9.83
2023-03-07T03:21:20.003Z,11.60
2023-03-07T03:23:48.089Z,11.70
2023-03-07T03:26:15.844Z,13.37
2023-03-07T03:28:43.881Z,12.47
2023-03-07T03:31:17.089Z,12.13
2023-03-07T03:33:45.370Z,14.03
2023-03-07T03:36:19.424Z,10.70
2023-03-07T03:38:52.088Z,9.07
2023-03-07T03:41:20.107Z,8.93
2023-03-07T03:43:49.776Z,9.50
2023-03-07T03:46:19.929Z,8.60
2023-03-07T03:48:56.112Z,9.33
2023-03-07T03:51:28.288Z,8.53
2023-03-07T03:54:00.456Z,8.87
2023-03-07T03:56:29.759Z,7.70
2023-03-07T03:58:58.525Z,7.40
2023-03-07T04:01:30.028Z,9.57
2023-03-07T04:03:59.515Z,10.60
2023-03-07T04:06:34.003Z,11.47
2023-03-07T04:09:04.834Z,13.30
2023-03-07T04:11:33.844Z,12.40
2023-03-07T04:14:02.969Z,14.23
2023-03-07T04:16:32.008Z,15.17
2023-03-07T04:19:00.659Z,12.60
2023-03-07T04:21:28.359Z,14.90
2023-03-07T04:23:58.637Z,18.00
2023-03-07T04:26:30.345Z,15.10
2023-03-07T04:28:58.240Z,10.87
2023-03-07T04:31:40.999Z,17.53
2023-03-07T04:34:11.701Z,15.43
2023-03-07T04:36:39.784Z,15.70
2023-03-07T04:39:07.694Z,20.43
2023-03-07T04:41:36.299Z,19.80
2023-03-07T04:44:09.751Z,23.47
2023-03-07T04:46:37.564Z,18.80
2023-03-07T04:49:05.571Z,22.70
2023-03-07T04:51:33.800Z,21.43
2023-03-07T04:54:01.731Z,20.07
2023-03-07T04:56:29.514Z,15.23
2023-03-07T04:58:57.504Z,14.30
2023-03-07T05:01:25.274Z,16.60
2023-03-07T05:03:53.595Z,13.50
2023-03-07T05:06:23.228Z,13.70
2023-03-07T05:08:52.726Z,12.03
2023-03-07T05:11:22.488Z,11.07
2023-03-07T05:13:51.750Z,7.90
2023-03-07T05:16:22.135Z,9.37
2023-03-07T05:18:50.335Z,8.70
2023-03-07T05:21:18.509Z,11.40
2023-03-07T05:23:46.311Z,11.10
2023-03-07T05:26:14.562Z,11.57
2023-03-07T05:28:42.681Z,14.23
2023-03-07T05:31:10.585Z,14.67
2023-03-07T05:33:38.583Z,20.70
2023-03-07T05:36:07.244Z,18.80
2023-03-07T05:38:37.105Z,22.43
2023-03-07T05:41:05.152Z,22.00
2023-03-07T05:43:33.878Z,22.97
2023-03-07T05:46:01.814Z,25.07
2023-03-07T05:48:29.569Z,23.47
2023-03-07T05:51:01.343Z,27.20
2023-03-07T05:53:29.794Z,19.27
2023-03-07T05:55:58.361Z,17.13
2023-03-07T05:58:26.548Z,20.90
2023-03-07T06:00:54.563Z,26.53
2023-03-07T06:03:23.276Z,22.50
2023-03-07T06:05:51.733Z,26.97
2023-03-07T06:08:19.686Z,26.53
2023-03-07T06:10:55.351Z,30.87
2023-03-07T06:13:26.477Z,31.10
2023-03-07T06:15:55.849Z,33.07
2023-03-07T06:18:26.978Z,28.70
2023-03-07T06:21:06.795Z,27.70
2023-03-07T06:23:39.471Z,27.33
2023-03-07T06:26:12.890Z,27.90
2023-03-07T06:28:43.404Z,32.33
2023-03-07T06:31:20.080Z,34.20
2023-03-07T06:33:49.116Z,39.23
2023-03-07T06:36:21.315Z,29.53
2023-03-07T06:38:56.372Z,31.53
2023-03-07T06:41:24.747Z,31.43
2023-03-07T06:43:54.759Z,31.30
2023-03-07T06:46:27.737Z,28.37
2023-03-07T06:48:56.560Z,27.13
2023-03-07T06:51:25.452Z,25.83
2023-03-07T06:53:56.218Z,21.87
2023-03-07T06:56:24.027Z,29.10
2023-03-07T06:58:51.924Z,24.03
2023-03-07T07:01:23.330Z,23.63
2023-03-07T07:03:53.357Z,24.07
2023-03-07T07:06:21.475Z,23.50
2023-03-07T07:08:53.488Z,24.37
2023-03-07T07:11:22.174Z,22.87
2023-03-07T07:13:50.860Z,22.77
2023-03-07T07:16:21.688Z,27.23
2023-03-07T07:18:52.799Z,24.73
2023-03-07T07:21:21.091Z,29.47
2023-03-07T07:23:49.173Z,25.97
2023-03-07T07:26:17.250Z,28.43
2023-03-07T07:28:45.140Z,25.23
2023-03-07T07:31:13.057Z,23.87
2023-03-07T07:33:40.902Z,35.00
2023-03-07T07:36:10.243Z,26.80
2023-03-07T07:38:38.415Z,20.00
2023-03-07T07:41:06.448Z,19.57
2023-03-07T07:43:35.101Z,19.30
2023-03-07T07:46:28.447Z,18.33
2023-03-07T07:48:57.119Z,17.20
2023-03-07T07:51:27.309Z,20.60
2023-03-07T07:53:55.601Z,16.47
2023-03-07T07:56:23.464Z,15.57
2023-03-07T07:58:51.254Z,16.87
2023-03-07T08:01:25.314Z,11.00
2023-03-07T08:03:53.399Z,11.47
2023-03-07T08:06:28.078Z,19.77
2023-03-07T08:08:56.842Z,11.20
2023-03-07T08:11:25.262Z,11.13
2023-03-07T08:13:53.621Z,13.07
2023-03-07T08:16:24.346Z,14.53
2023-03-07T08:18:57.915Z,14.03
2023-03-07T08:21:27.893Z,13.47
2023-03-07T08:23:57.285Z,12.97
2023-03-07T08:26:25.918Z,12.87
2023-03-07T08:28:53.888Z,13.57
2023-03-07T08:31:25.312Z,10.67
2023-03-07T08:33:53.792Z,12.40
2023-03-07T08:36:22.090Z,11.03
2023-03-07T08:38:53.590Z,11.00
2023-03-07T08:41:23.622Z,13.33
2023-03-07T08:43:51.531Z,11.07
2023-03-07T08:46:19.450Z,9.70
2023-03-07T08:48:47.780Z,10.50
2023-03-07T08:51:18.866Z,8.97
2023-03-07T08:53:47.379Z,9.20
2023-03-07T08:56:19.440Z,8.40
2023-03-07T08:58:47.321Z,11.37
2023-03-07T09:01:15.079Z,8.40
2023-03-07T09:03:43.940Z,10.63
2023-03-07T09:06:22.595Z,8.07
2023-03-07T09:08:51.385Z,8.80
2023-03-07T09:11:21.789Z,9.33
2023-03-07T09:13:52.894Z,10.43
2023-03-07T09:16:22.760Z,10.87
2023-03-07T09:18:51.540Z,10.17
2023-03-07T09:21:19.985Z,9.83
2023-03-07T09:23:48.118Z,10.70
2023-03-07T09:26:16.347Z,7.03
2023-03-07T09:28:44.357Z,7.17
2023-03-07T09:31:16.454Z,7.03
2023-03-07T09:33:46.787Z,8.30
2023-03-07T09:36:18.548Z,9.77
2023-03-07T09:38:48.322Z,9.07
2023-03-07T09:41:53.938Z,7.80
2023-03-07T09:44:57.230Z,10.60
2023-03-07T09:48:43.914Z,8.80
2023-03-07T09:51:43.050Z,8.80
2023-03-07T09:54:27.377Z,11.17
2023-03-07T09:57:00.632Z,9.40
2023-03-07T09:59:56.024Z,8.43
2023-03-07T10:02:51.974Z,10.83
2023-03-07T10:05:36.997Z,15.07
2023-03-07T10:08:09.789Z,9.73
2023-03-07T10:11:23.315Z,11.23
2023-03-07T10:14:38.596Z,13.37
2023-03-07T10:18:12.713Z,13.27
2023-03-07T10:21:02.517Z,9.97
2023-03-07T10:24:08.472Z,12.07
2023-03-07T10:27:06.900Z,14.63
2023-03-07T10:29:56.219Z,6.73
2023-03-07T10:32:44.177Z,9.03
2023-03-07T10:35:11.948Z,6.97
2023-03-07T10:38:24.849Z,11.07
2023-03-07T10:41:14.747Z,9.57
2023-03-07T10:43:46.153Z,9.90
2023-03-07T10:46:30.514Z,10.77
2023-03-07T10:49:09.879Z,10.33
2023-03-07T10:52:33.539Z,10.90
2023-03-07T10:55:44.447Z,10.33
2023-03-07T10:58:28.354Z,11.13
2023-03-07T11:01:20.917Z,9.47
2023-03-07T11:04:00.646Z,10.07
2023-03-07T11:07:02.678Z,7.67
2023-03-07T11:09:48.546Z,11.33
2023-03-07T11:12:24.279Z,11.37
2023-03-07T11:15:24.339Z,9.97
2023-03-07T11:17:53.823Z,8.57
2023-03-07T11:20:30.634Z,9.10
2023-03-07T11:23:30.911Z,9.40
2023-03-07T11:26:23.623Z,7.47
2023-03-07T11:29:14.862Z,8.73
2023-03-07T11:32:07.079Z,9.17
2023-03-07T11:34:59.351Z,10.13
2023-03-07T11:38:23.856Z,10.60
2023-03-07T11:41:38.557Z,11.30
2023-03-07T11:44:46.670Z,10.37
2023-03-07T11:47:56.828Z,13.80
2023-03-07T11:50:33.194Z,12.90
2023-03-07T11:53:33.840Z,10.20
2023-03-07T11:56:32.567Z,12.37
2023-03-07T11:59:34.064Z,13.83
2023-03-07T12:02:40.912Z,9.90
2023-03-07T12:05:33.556Z,9.73
2023-03-07T12:08:43.694Z,7.90
2023-03-07T12:11:51.010Z,8.27
2023-03-07T12:15:09.549Z,10.60
2023-03-07T12:18:37.541Z,14.00
2023-03-07T12:22:12.711Z,10.40
2023-03-07T12:25:43.706Z,12.47
2023-03-07T12:29:13.353Z,14.03
2023-03-07T12:31:51.974Z,11.07
2023-03-07T12:34:58.392Z,12.43
2023-03-07T12:37:41.467Z,12.10
2023-03-07T12:40:40.965Z,14.57
2023-03-07T12:43:39.594Z,13.73
2023-03-07T12:46:33.373Z,15.00
2023-03-07T12:49:51.644Z,13.70
2023-03-07T12:52:46.396Z,14.50
2023-03-07T12:55:50.999Z,14.43
2023-03-07T12:58:24.826Z,13.30
2023-03-07T13:01:40.170Z,13.17
2023-03-07T13:04:42.763Z,10.43
2023-03-07T13:07:33.609Z,9.50
2023-03-07T13:10:07.886Z,9.13
2023-03-07T13:12:38.352Z,13.83
2023-03-07T13:15:25.508Z,9.50
2023-03-07T13:18:00.728Z,9.90
2023-03-07T13:20:28.508Z,8.97
2023-03-07T13:23:11.880Z,8.20
2023-03-07T13:25:56.021Z,9.50
2023-03-07T13:28:40.875Z,10.13
2023-03-07T13:31:16.259Z,7.90
2023-03-07T13:33:44.532Z,10.63
2023-03-07T13:36:39.260Z,8.83
2023-03-07T13:39:38.257Z,9.43
2023-03-07T13:42:47.022Z,9.17
2023-03-07T13:45:39.585Z,10.93
2023-03-07T13:48:58.029Z,11.20
2023-03-07T13:51:26.014Z,9.23
2023-03-07T13:54:13.792Z,8.27
2023-03-07T13:56:43.950Z,6.93
2023-03-07T13:59:14.508Z,8.07
2023-03-07T14:02:01.571Z,8.50
2023-03-07T14:04:55.961Z,10.90
2023-03-07T14:07:41.437Z,9.57
2023-03-07T14:10:47.746Z,9.93
2023-03-07T14:13:55.011Z,10.80
2023-03-07T14:17:21.882Z,10.30
2023-03-07T14:20:19.480Z,11.13
2023-03-07T14:23:56.325Z,11.90
2023-03-07T14:26:37.442Z,9.67
2023-03-07T14:29:18.097Z,9.63
2023-03-07T14:31:48.193Z,9.80
2023-03-07T14:34:36.173Z,7.80
2023-03-07T14:37:23.853Z,8.43
2023-03-07T14:40:14.997Z,33.63
2023-03-07T14:43:39.560Z,8.07
2023-03-07T14:47:00.023Z,8.30
2023-03-07T14:50:01.615Z,9.57
2023-03-07T14:52:31.872Z,8.60
2023-03-07T14:55:07.223Z,10.90
2023-03-07T14:57:43.490Z,9.60
2023-03-07T15:00:29.590Z,9.77
2023-03-07T15:03:08.441Z,10.70
2023-03-07T15:05:55.817Z,11.83
2023-03-07T15:08:38.305Z,11.80
2023-03-07T15:11:33.076Z,11.70
2023-03-07T15:14:46.110Z,12.07
2023-03-07T15:17:57.115Z,11.20
2023-03-07T15:20:28.366Z,10.93
2023-03-07T15:23:29.895Z,11.93
2023-03-07T15:26:10.928Z,9.00
2023-03-07T15:28:43.468Z,10.00
2023-03-07T15:31:11.604Z,10.67
2023-03-07T15:33:39.671Z,10.70
2023-03-07T15:36:13.513Z,11.50
2023-03-07T15:38:53.197Z,12.60
2023-03-07T15:41:37.706Z,11.97
2023-03-07T15:44:19.476Z,12.37
2023-03-07T15:46:59.408Z,14.37
2023-03-07T15:49:58.115Z,10.53
2023-03-07T15:52:39.662Z,9.00
2023-03-07T15:55:21.566Z,12.60
2023-03-07T15:58:02.569Z,11.40
2023-03-07T16:00:41.704Z,11.23
2023-03-07T16:03:31.161Z,12.50
2023-03-07T16:06:02.072Z,9.67
2023-03-07T16:08:30.406Z,6.17
2023-03-07T16:11:07.792Z,6.10
2023-03-07T16:13:43.960Z,4.03
2023-03-07T16:16:14.700Z,4.40
2023-03-07T16:18:44.319Z,5.10
2023-03-07T16:21:18.656Z,3.60
2023-03-07T16:23:48.045Z,4.80
2023-03-07T16:26:23.373Z,6.10
2023-03-07T16:28:53.790Z,5.47
2023-03-07T16:31:22.115Z,5.20
2023-03-07T16:33:50.176Z,6.00
2023-03-07T16:36:18.559Z,10.60
2023-03-07T16:38:47.936Z,7.60
2023-03-07T16:41:23.496Z,6.70
2023-03-07T16:43:58.962Z,7.17
2023-03-07T16:46:29.706Z,6.20
2023-03-07T16:48:57.672Z,6.10
2023-03-07T16:51:27.751Z,6.10
2023-03-07T16:53:56.965Z,9.40
2023-03-07T16:56:35.433Z,9.10
2023-03-07T16:59:03.984Z,7.70
2023-03-07T17:01:32.088Z,6.37
2023-03-07T17:04:00.171Z,9.20
2023-03-07T17:06:38.369Z,6.17
2023-03-07T17:09:12.796Z,7.50
2023-03-07T17:11:50.083Z,10.27
2023-03-07T17:14:20.423Z,9.87
2023-03-07T17:16:51.150Z,6.90
2023-03-07T17:19:31.605Z,9.53
2023-03-07T17:22:03.361Z,6.70
2023-03-07T17:24:31.809Z,9.50
2023-03-07T17:27:03.723Z,11.73
2023-03-07T17:29:54.588Z,8.40
2023-03-07T17:32:22.786Z,8.80
2023-03-07T17:34:50.568Z,10.70
2023-03-07T17:37:19.090Z,8.70
2023-03-07T17:39:47.033Z,12.57
2023-03-07T17:42:15.184Z,8.80
2023-03-07T17:44:43.089Z,8.90
2023-03-07T17:47:11.048Z,10.50
2023-03-07T17:49:39.950Z,11.10
2023-03-07T17:52:08.522Z,14.80
2023-03-07T17:54:36.495Z,13.30
2023-03-07T17:57:04.534Z,16.60
2023-03-07T17:59:33.248Z,12.77
2023-03-07T18:02:01.133Z,12.03
2023-03-07T18:04:31.322Z,14.57
2023-03-07T18:07:00.729Z,14.00
2023-03-07T18:09:28.762Z,14.20
2023-03-07T18:11:56.707Z,14.90
2023-03-07T18:14:25.843Z,15.43
2023-03-07T18:16:54.098Z,15.93
2023-03-07T18:19:26.765Z,13.70
2023-03-07T18:21:56.018Z,14.20
2023-03-07T18:24:30.206Z,12.17
2023-03-07T18:26:59.947Z,14.73
2023-03-07T18:29:30.897Z,15.30
2023-03-07T18:31:58.940Z,13.53
2023-03-07T18:34:26.959Z,13.53
2023-03-07T18:36:54.855Z,15.53
2023-03-07T18:39:24.838Z,13.10
2023-03-07T18:41:52.960Z,15.33
2023-03-07T18:44:21.328Z,17.30
2023-03-07T18:46:49.578Z,17.20
2023-03-07T18:49:18.100Z,16.43
2023-03-07T18:51:46.200Z,15.53
2023-03-07T18:54:14.645Z,13.40
2023-03-07T18:56:47.324Z,13.63
2023-03-07T18:59:17.429Z,12.07
2023-03-07T19:01:50.304Z,12.37
2023-03-07T19:04:19.015Z,13.70
2023-03-07T19:06:47.672Z,12.67
2023-03-07T19:09:21.747Z,14.50
2023-03-07T19:11:49.929Z,15.23
2023-03-07T19:14:18.572Z,13.90
2023-03-07T19:16:46.686Z,14.90
2023-03-07T19:19:14.738Z,20.20
2023-03-07T19:21:42.619Z,19.03
2023-03-07T19:24:12.112Z,14.50
2023-03-07T19:26:41.768Z,17.70
2023-03-07T19:29:12.254Z,19.37
2023-03-07T19:31:43.980Z,17.67
2023-03-07T19:34:12.503Z,21.63
2023-03-07T19:36:41.896Z,15.37
2023-03-07T19:39:15.218Z,16.83
2023-03-07T19:41:45.490Z,16.73
2023-03-07T19:44:13.395Z,19.40
2023-03-07T19:46:46.202Z,19.43
2023-03-07T19:49:18.478Z,17.20
2023-03-07T19:51:46.434Z,19.47
2023-03-07T19:54:15.922Z,21.50
2023-03-07T19:56:45.658Z,17.63
2023-03-07T19:59:14.666Z,19.40
2023-03-07T20:01:43.093Z,19.57
2023-03-07T20:04:16.171Z,21.83
2023-03-07T20:06:45.560Z,27.30
2023-03-07T20:09:14.146Z,23.27
2023-03-07T20:11:43.542Z,22.97
2023-03-07T20:14:13.263Z,19.67
2023-03-07T20:16:41.721Z,21.83
2023-03-07T20:19:10.751Z,25.43
2023-03-07T20:21:38.949Z,21.37
2023-03-07T20:24:08.779Z,25.83
2023-03-07T20:26:39.403Z,31.00
2023-03-07T20:29:10.960Z,28.50
2023-03-07T20:31:40.375Z,33.73
2023-03-07T20:34:11.363Z,35.90
2023-03-07T20:36:39.471Z,37.40
2023-03-07T20:39:14.674Z,38.77
2023-03-07T20:41:44.584Z,32.60
2023-03-07T20:44:15.826Z,38.60
2023-03-07T20:46:43.659Z,36.07
2023-03-07T20:49:15.989Z,32.07
2023-03-07T20:51:44.737Z,42.37
2023-03-07T20:54:18.103Z,39.27
2023-03-07T20:56:48.165Z,38.23
2023-03-07T20:59:19.514Z,39.90
2023-03-07T21:01:47.912Z,41.33
2023-03-07T21:04:18.601Z,38.27
2023-03-07T21:06:49.604Z,37.23
2023-03-07T21:09:19.234Z,36.00
2023-03-07T21:11:50.449Z,36.27
2023-03-07T21:14:21.679Z,38.93
2023-03-07T21:16:49.862Z,41.10
2023-03-07T21:19:17.919Z,40.40
2023-03-07T21:21:46.055Z,35.67
2023-03-07T21:24:15.778Z,40.50
2023-03-07T21:26:43.924Z,35.50
2023-03-07T21:29:13.842Z,32.27
2023-03-07T21:31:41.710Z,33.17
2023-03-07T21:34:15.272Z,33.10
2023-03-07T21:36:43.218Z,34.60
2023-03-07T21:39:12.236Z,32.20
2023-03-07T21:41:40.726Z,27.17
2023-03-07T21:44:09.999Z,30.27
2023-03-07T21:46:38.454Z,26.57
2023-03-07T21:49:06.557Z,30.20
2023-03-07T21:51:34.932Z,31.13
2023-03-07T21:54:02.758Z,27.13
2023-03-07T21:56:30.487Z,35.23
2023-03-07T21:58:58.286Z,28.40
2023-03-07T22:01:30.303Z,26.53
2023-03-07T22:04:00.097Z,28.70
2023-03-07T22:06:29.202Z,26.17
2023-03-07T22:08:58.791Z,27.13
2023-03-07T22:11:26.748Z,25.60
2023-03-07T22:13:54.415Z,21.53
2023-03-07T22:16:22.632Z,30.40
2023-03-07T22:18:58.124Z,23.77
2023-03-07T22:21:26.773Z,29.90
2023-03-07T22:23:59.661Z,28.60
2023-03-07T22:26:31.470Z,30.40
2023-03-07T22:29:00.162Z,31.27
2023-03-07T22:31:31.068Z,33.17
2023-03-07T22:34:00.353Z,38.50
2023-03-07T22:36:28.464Z,28.30
2023-03-07T22:38:56.804Z,30.30
2023-03-07T22:41:25.943Z,30.47
2023-03-07T22:43:54.458Z,25.87
2023-03-07T22:46:23.640Z,36.47
2023-03-07T22:48:57.240Z,27.43
2023-03-07T22:51:26.384Z,38.07
2023-03-07T22:53:54.868Z,31.53
2023-03-07T22:56:28.212Z,31.13
2023-03-07T22:58:56.815Z,27.53
2023-03-07T23:01:29.660Z,37.00
2023-03-07T23:04:00.924Z,30.53
2023-03-07T23:06:33.099Z,33.00
2023-03-07T23:09:02.636Z,29.23
2023-03-07T23:11:33.564Z,29.27
2023-03-07T23:14:02.121Z,29.23
2023-03-07T23:16:32.967Z,33.10
2023-03-07T23:19:01.008Z,32.00
2023-03-07T23:21:32.966Z,31.87
2023-03-07T23:24:04.306Z,33.17
2023-03-07T23:26:38.186Z,34.33
2023-03-07T23:29:10.020Z,31.07
2023-03-07T23:31:41.302Z,34.27
2023-03-07T23:34:20.445Z,35.90
2023-03-07T23:36:48.450Z,35.50
2023-03-07T23:39:17.673Z,34.70
2023-03-07T23:41:46.263Z,32.70
2023-03-07T23:44:14.074Z,34.83
2023-03-07T23:46:41.924Z,35.53
2023-03-07T23:49:11.873Z,31.97
2023-03-07T23:51:39.838Z,29.73
2023-03-07T23:54:07.649Z,34.70
2023-03-07T23:56:35.253Z,42.57
2023-03-07T23:59:03.024Z,42.77
